Time;durP1;ratioP1;P1;durP2;ratioP2;P2;SDS_P1;SDS_P2;PMS_P1;PMS_P2;Temp;Humidity;BMP_temperature;BMP_pressure;BME280_temperature;BME280_humidity;BME280_pressure;Samples;Min_cycle;Max_cycle;Signal;HPM_P1;HPM_P2
2021/12/21 00:00:11;;;;;;;45.45;25.25;;;;;;;16.46;47.84;102949.38;5006033;28;20614;-58
2021/12/21 00:02:43;;;;;;;42.40;24.80;;;;;;;16.45;47.31;102955.69;5007759;28;20058;-58
2021/12/21 00:05:16;;;;;;;40.30;24.27;;;;;;;16.44;47.88;102951.25;5002920;28;20065;-57
2021/12/21 00:07:44;;;;;;;41.78;24.80;;;;;;;16.43;48.01;102960.25;5006776;28;20190;-57
2021/12/21 00:10:11;;;;;;;40.80;23.73;;;;;;;16.42;47.60;102955.84;5003225;28;20065;-58
2021/12/21 00:12:48;;;;;;;41.33;23.63;;;;;;;16.40;47.92;102955.06;5005804;28;20073;-58
2021/12/21 00:15:22;;;;;;;41.10;23.35;;;;;;;16.40;47.89;102960.41;5006001;28;20141;-57
2021/12/21 00:17:57;;;;;;;41.42;23.70;;;;;;;16.38;47.92;102960.53;5006347;28;20507;-57
2021/12/21 00:25:21;;;;;;;37.35;21.77;;;;;;;16.32;47.78;102950.16;5007455;28;20081;-58
2021/12/21 00:27:49;;;;;;;38.90;23.00;;;;;;;16.32;47.95;102944.81;5005780;28;20084;-57
2021/12/21 00:30:16;;;;;;;37.65;21.42;;;;;;;16.31;47.17;102940.44;5004284;28;20132;-58
2021/12/21 00:32:43;;;;;;;37.53;21.75;;;;;;;16.31;47.29;102943.09;5006217;28;20076;-57
2021/12/21 00:35:11;;;;;;;36.95;21.15;;;;;;;16.27;47.91;102937.06;5004775;28;21050;-58
2021/12/21 00:37:40;;;;;;;36.20;20.60;;;;;;;16.28;46.98;102938.81;5005349;28;20149;-58
2021/12/21 00:40:10;;;;;;;38.72;21.77;;;;;;;16.26;47.33;102937.16;5001466;28;20073;-57
2021/12/21 00:42:37;;;;;;;34.35;19.85;;;;;;;16.26;47.28;102929.16;5009923;28;20081;-57
2021/12/21 00:45:05;;;;;;;37.88;21.75;;;;;;;16.23;48.04;102921.28;5005293;28;20046;-58
2021/12/21 00:47:34;;;;;;;35.60;20.40;;;;;;;16.24;47.25;102923.00;5007587;28;20050;-58
2021/12/21 00:50:03;;;;;;;33.42;18.90;;;;;;;16.22;47.30;102924.94;5005466;28;20046;-58
2021/12/21 00:52:30;;;;;;;33.55;19.65;;;;;;;16.21;47.68;102924.06;5005277;28;20137;-58
2021/12/21 00:54:57;;;;;;;33.83;20.35;;;;;;;16.21;47.77;102923.22;5004520;28;20628;-57
2021/12/21 00:57:23;;;;;;;34.78;19.42;;;;;;;16.19;47.01;102925.09;5004790;28;20120;-58
2021/12/21 00:59:50;;;;;;;33.15;19.20;;;;;;;16.18;47.53;102934.09;5004754;28;20077;-57
2021/12/21 01:02:16;;;;;;;32.35;18.83;;;;;;;16.17;47.43;102922.53;5004699;28;20081;-57
2021/12/21 01:04:47;;;;;;;34.53;17.75;;;;;;;16.17;47.46;102932.38;5005605;28;20438;-57
2021/12/21 01:12:13;;;;;;;30.20;17.67;;;;;;;16.14;47.14;102920.03;5004358;28;20133;-57
2021/12/21 01:17:31;;;;;;;30.10;16.88;;;;;;;16.12;47.94;102915.72;5006075;28;20072;-57
2021/12/21 01:20:09;;;;;;;29.38;16.85;;;;;;;16.11;48.10;102917.53;5004372;28;20048;-57
2021/12/21 01:28:10;;;;;;;27.55;16.08;;;;;;;16.07;47.38;102915.97;5005832;28;20601;-57
2021/12/21 01:31:23;;;;;;;26.40;15.68;;;;;;;16.09;47.80;102921.25;5006691;28;20143;-57
2021/12/21 01:33:52;;;;;;;29.85;16.75;;;;;;;16.06;47.90;102924.97;5005665;28;20129;-58
2021/12/21 01:36:27;;;;;;;29.95;16.67;;;;;;;16.06;47.05;102919.63;5003685;28;20054;-56
2021/12/21 01:39:12;;;;;;;25.10;14.43;;;;;;;16.04;48.01;102922.41;5004993;28;20146;-57
2021/12/21 01:41:50;;;;;;;24.92;13.98;;;;;;;16.03;47.23;102915.28;5004986;28;20165;-57
2021/12/21 01:49:49;;;;;;;25.67;14.73;;;;;;;16.00;47.40;102901.25;5007875;28;20057;-56
2021/12/21 01:52:18;;;;;;;;;;;;;;;15.98;48.14;102901.34;5009023;28;20049;-57
2021/12/21 01:54:46;;;;;;;23.75;13.68;;;;;;;15.99;47.38;102905.72;5005115;28;20012;-57
2021/12/21 01:57:13;;;;;;;24.27;13.50;;;;;;;15.99;47.76;102908.41;5006419;28;20081;-57
2021/12/21 01:59:41;;;;;;;23.25;12.77;;;;;;;15.95;48.02;102896.16;5011163;28;20050;-57
2021/12/21 02:02:10;;;;;;;23.75;12.80;;;;;;;15.94;47.18;102893.59;5010341;28;20050;-57
2021/12/21 02:04:38;;;;;;;22.88;12.52;;;;;;;15.94;47.88;102890.91;5010035;28;20050;-56
2021/12/21 02:07:06;;;;;;;22.10;13.13;;;;;;;15.91;47.33;102891.94;5009581;28;20104;-57
2021/12/21 02:09:37;;;;;;;22.42;12.93;;;;;;;15.92;47.05;102895.47;5011390;28;20125;-57
2021/12/21 02:12:08;;;;;;;21.67;12.00;;;;;;;15.91;48.13;102886.59;5006469;28;20088;-56
2021/12/21 02:14:36;;;;;;;21.33;12.40;;;;;;;15.91;47.49;102880.38;5010448;28;20052;-57
2021/12/21 02:20:23;;;;;;;18.52;11.30;;;;;;;15.89;47.86;102887.66;5006764;28;20046;-56
2021/12/21 02:23:07;;;;;;;19.13;11.38;;;;;;;15.87;47.86;102886.88;5010508;28;20092;-56
2021/12/21 02:25:53;;;;;;;20.90;11.70;;;;;;;15.86;46.89;102885.16;5006165;28;20932;-57
2021/12/21 02:30:52;;;;;;;20.45;10.82;;;;;;;15.83;47.55;102872.81;5010218;28;20104;-57
2021/12/21 02:33:20;;;;;;;18.02;10.45;;;;;;;15.83;47.45;102882.66;5009308;28;20448;-57
2021/12/21 02:35:47;;;;;;;20.80;11.60;;;;;;;15.83;46.96;102879.97;5008677;28;20141;-57
2021/12/21 02:38:14;;;;;;;21.60;10.68;;;;;;;15.80;47.70;102886.38;5008356;28;20111;-57
2021/12/21 02:40:41;;;;;;;19.70;10.70;;;;;;;15.80;47.38;102881.03;5011494;28;20073;-57
2021/12/21 02:43:10;;;;;;;16.70;9.27;;;;;;;15.79;47.84;102880.16;5010603;28;20129;-57
2021/12/21 02:45:39;;;;;;;17.00;10.43;;;;;;;15.79;46.89;102879.28;5012249;28;20084;-57
2021/12/21 02:48:06;;;;;;;17.08;10.07;;;;;;;15.79;47.96;102887.31;5010347;28;20120;-58
2021/12/21 02:50:33;;;;;;;19.52;9.77;;;;;;;15.75;46.81;102883.94;5009130;28;20042;-57
2021/12/21 02:53:03;;;;;;;16.48;10.02;;;;;;;15.75;46.89;102883.94;5010247;28;20081;-57
2021/12/21 02:55:29;;;;;;;17.67;10.02;;;;;;;15.76;46.91;102884.84;5007713;28;20073;-57
2021/12/21 02:57:58;;;;;;;18.40;10.25;;;;;;;15.74;47.95;102884.06;5010726;28;20477;-57
2021/12/21 03:00:27;;;;;;;17.30;9.55;;;;;;;15.72;46.97;102880.63;5012115;28;20133;-57
2021/12/21 03:02:54;;;;;;;14.73;9.07;;;;;;;15.71;47.46;102879.72;5010315;28;20097;-57
2021/12/21 03:05:21;;;;;;;17.48;9.80;;;;;;;15.70;46.83;102883.38;5008027;28;20575;-57
2021/12/21 03:08:09;;;;;;;15.57;8.90;;;;;;;15.70;47.95;102886.03;5008653;28;20419;-57
2021/12/21 03:10:36;;;;;;;15.68;9.10;;;;;;;15.70;48.04;102879.84;5006535;28;20080;-57
2021/12/21 03:15:49;;;;;;;13.63;8.13;;;;;;;15.67;47.04;102878.19;5006943;28;20088;-56
2021/12/21 03:18:15;;;;;;;16.17;8.60;;;;;;;15.67;47.09;102880.00;5007704;28;20081;-57
2021/12/21 03:20:42;;;;;;;14.30;8.43;;;;;;;15.64;46.93;102870.34;5006740;28;20148;-56
2021/12/21 03:23:08;;;;;;;14.00;8.18;;;;;;;15.64;47.63;102878.34;5009518;28;20084;-56
2021/12/21 03:25:35;;;;;;;15.27;7.75;;;;;;;15.63;47.80;102873.94;5005763;28;20050;-57
2021/12/21 03:28:02;;;;;;;15.40;8.30;;;;;;;15.63;48.00;102870.41;5010067;28;20091;-56
2021/12/21 03:30:28;;;;;;;15.05;8.10;;;;;;;15.62;47.82;102876.72;5007649;28;20050;-56
2021/12/21 03:32:55;;;;;;;13.73;8.13;;;;;;;15.61;46.97;102880.34;5006787;28;20157;-57
2021/12/21 03:35:22;;;;;;;14.00;7.82;;;;;;;15.60;47.40;102873.25;5006806;28;20061;-57
2021/12/21 03:37:48;;;;;;;14.80;8.32;;;;;;;15.59;46.71;102868.84;5008204;28;20081;-56
2021/12/21 03:40:15;;;;;;;10.65;6.97;;;;;;;15.58;47.97;102873.34;5008257;28;20072;-56
2021/12/21 03:42:41;;;;;;;12.98;7.68;;;;;;;15.57;46.72;102868.97;5007692;28;20085;-57
2021/12/21 03:45:08;;;;;;;11.40;6.90;;;;;;;15.58;46.76;102872.50;5010149;28;20088;-57
2021/12/21 03:47:35;;;;;;;12.75;7.50;;;;;;;15.61;47.36;102880.34;5005846;28;20073;-57
2021/12/21 03:50:04;;;;;;;13.38;6.95;;;;;;;15.67;48.12;102883.53;5005347;28;20054;-57
2021/12/21 03:52:30;;;;;;;14.95;7.63;;;;;;;15.75;46.82;102883.09;5009522;28;20356;-56
2021/12/21 03:55:00;;;;;;;13.38;7.13;;;;;;;15.83;46.74;102885.31;5007843;28;20129;-57
2021/12/21 03:57:28;;;;;;;13.00;7.53;;;;;;;15.90;47.58;102874.19;5007667;28;20046;-57
2021/12/21 03:59:56;;;;;;;11.32;7.22;;;;;;;15.98;47.38;102869.25;5007133;28;20084;-57
2021/12/21 04:02:24;;;;;;;11.27;6.60;;;;;;;16.07;46.44;102864.31;5007830;28;20869;-57
2021/12/21 04:04:53;;;;;;;11.13;6.70;;;;;;;16.13;47.06;102867.47;5002868;28;20414;-57
2021/12/21 04:07:20;;;;;;;13.13;6.78;;;;;;;16.22;46.20;102872.28;5007671;28;20136;-57
2021/12/21 04:09:48;;;;;;;11.00;6.53;;;;;;;16.29;46.79;102868.28;5006583;28;20369;-58
2021/12/21 04:12:15;;;;;;;10.73;6.15;;;;;;;16.42;46.21;102862.19;5006530;28;20053;-57
2021/12/21 04:14:41;;;;;;;11.35;6.45;;;;;;;16.49;45.69;102863.53;5006212;28;22566;-57
2021/12/21 04:17:17;;;;;;;8.63;5.55;;;;;;;16.58;46.36;102857.59;5006721;28;20046;-57
2021/12/21 04:19:44;;;;;;;12.50;7.07;;;;;;;16.67;45.76;102859.69;5004080;28;20109;-57
2021/12/21 04:22:11;;;;;;;10.57;6.35;;;;;;;16.75;45.75;102859.25;5007062;28;20080;-57
2021/12/21 04:24:37;;;;;;;10.25;5.82;;;;;;;16.82;46.04;102863.28;5006103;28;20046;-57
2021/12/21 04:27:04;;;;;;;9.73;6.13;;;;;;;16.89;45.41;102853.06;5010207;28;20076;-57
2021/12/21 04:29:31;;;;;;;9.85;5.55;;;;;;;16.95;46.03;102855.31;5004575;28;20137;-57
2021/12/21 04:31:57;;;;;;;9.27;5.53;;;;;;;17.01;45.28;102853.13;5007086;28;20084;-58
2021/12/21 04:34:24;;;;;;;10.07;5.60;;;;;;;17.07;45.42;102849.19;5004967;28;20046;-58
2021/12/21 04:36:51;;;;;;;9.02;5.43;;;;;;;17.13;45.65;102846.13;5007149;28;20070;-58
2021/12/21 04:39:37;;;;;;;9.68;5.15;;;;;;;17.17;44.84;102844.97;5006347;28;20511;-58
2021/12/21 04:42:05;;;;;;;11.55;6.03;;;;;;;17.24;44.97;102846.28;5003344;28;20994;-58
2021/12/21 04:44:32;;;;;;;8.38;4.78;;;;;;;17.27;45.04;102846.06;5008237;28;20472;-58
2021/12/21 04:46:58;;;;;;;8.25;5.13;;;;;;;17.33;45.34;102838.63;5006247;28;20077;-58
2021/12/21 04:49:25;;;;;;;9.65;5.20;;;;;;;17.36;45.36;102833.03;5004262;28;20148;-58
2021/12/21 04:51:52;;;;;;;7.55;4.60;;;;;;;17.39;45.33;102836.38;5005378;28;20128;-58
2021/12/21 04:54:19;;;;;;;7.43;4.50;;;;;;;17.42;44.63;102843.38;5004367;28;20604;-58
2021/12/21 04:56:45;;;;;;;9.98;4.35;;;;;;;17.45;44.57;102843.19;5005293;28;20141;-58
2021/12/21 04:59:12;;;;;;;9.70;5.25;;;;;;;17.45;44.74;102843.19;5006115;28;20090;-58
2021/12/21 05:01:42;;;;;;;9.23;5.10;;;;;;;17.45;44.82;102846.72;5006158;28;20465;-58
2021/12/21 05:04:09;;;;;;;7.90;4.47;;;;;;;17.45;44.38;102843.19;5006735;28;20085;-59
2021/12/21 05:06:36;;;;;;;7.82;4.50;;;;;;;17.42;44.63;102838.88;5004443;28;20057;-59
2021/12/21 05:09:14;;;;;;;8.25;4.65;;;;;;;17.40;44.61;102835.41;5008869;28;20077;-58
2021/12/21 05:11:43;;;;;;;8.20;4.30;;;;;;;17.37;44.79;102832.09;5004048;28;20446;-58
2021/12/21 05:14:10;;;;;;;8.05;4.35;;;;;;;17.33;44.31;102834.13;4998837;28;20125;-58
2021/12/21 05:16:37;;;;;;;9.45;4.95;;;;;;;17.27;44.88;102835.34;5006010;28;20104;-58
2021/12/21 05:19:04;;;;;;;7.93;4.55;;;;;;;17.24;44.60;102840.06;5001108;28;20123;-58
2021/12/21 05:21:32;;;;;;;10.73;5.28;;;;;;;17.19;44.38;102839.50;5001437;28;20385;-57
2021/12/21 05:23:58;;;;;;;9.45;5.55;;;;;;;17.15;44.96;102837.97;5004409;28;20393;-58
2021/12/21 05:26:25;;;;;;;8.95;5.10;;;;;;;17.11;44.71;102837.31;5003357;28;20385;-57
2021/12/21 05:28:52;;;;;;;8.50;5.55;;;;;;;17.06;44.89;102841.25;4999280;28;20084;-58
2021/12/21 05:31:19;;;;;;;9.85;5.60;;;;;;;17.01;45.19;102836.19;5000426;28;20469;-58
2021/12/21 05:33:50;;;;;;;11.32;5.85;;;;;;;16.96;44.47;102835.59;4999373;28;20105;-58
2021/12/21 05:36:17;;;;;;;12.38;6.55;;;;;;;16.92;44.51;102839.44;4997632;28;20085;-58
2021/12/21 05:38:48;;;;;;;11.80;6.55;;;;;;;16.88;44.89;102835.25;4999942;28;20081;-57
2021/12/21 05:41:24;;;;;;;13.40;6.70;;;;;;;16.85;45.32;102838.13;4997952;28;20085;-58
2021/12/21 05:43:51;;;;;;;13.55;7.18;;;;;;;16.81;44.51;102831.25;4998616;28;20050;-58
2021/12/21 05:46:18;;;;;;;14.48;8.10;;;;;;;16.77;45.16;102835.94;5001010;28;20086;-58
2021/12/21 05:48:44;;;;;;;12.55;7.72;;;;;;;16.72;45.23;102844.22;5001259;28;20050;-57
2021/12/21 05:51:11;;;;;;;14.88;7.90;;;;;;;16.68;45.15;102837.34;5003182;28;20072;-58
2021/12/21 05:53:37;;;;;;;14.50;9.13;;;;;;;16.65;44.45;102845.56;5002034;28;20386;-57
2021/12/21 05:56:04;;;;;;;14.32;7.65;;;;;;;16.62;45.34;102847.56;4999961;28;20585;-57
2021/12/21 05:58:31;;;;;;;14.20;8.00;;;;;;;16.57;45.26;102844.31;5000248;28;20090;-57
2021/12/21 06:00:57;;;;;;;14.68;8.27;;;;;;;16.53;45.04;102840.97;5002021;28;20137;-57
2021/12/21 06:03:24;;;;;;;16.30;8.77;;;;;;;16.48;45.48;102841.25;4998511;28;20046;-57
2021/12/21 06:05:55;;;;;;;16.08;8.82;;;;;;;16.47;45.27;102841.34;5002633;28;20054;-57
2021/12/21 06:08:23;;;;;;;16.88;8.95;;;;;;;16.42;45.89;102840.78;5000139;28;20084;-58
2021/12/21 06:10:52;;;;;;;16.55;9.15;;;;;;;16.40;45.30;102842.66;4999960;28;20124;-57
2021/12/21 06:13:41;;;;;;;15.52;8.80;;;;;;;16.36;45.13;102839.34;5001268;28;20449;-58
2021/12/21 06:16:26;;;;;;;17.63;10.02;;;;;;;16.33;45.56;102838.66;5000716;28;20078;-58
2021/12/21 06:27:04;;;;;;;17.63;10.25;;;;;;;16.20;46.00;102841.19;4997703;28;20084;-58
2021/12/21 06:29:31;;;;;;;16.65;9.07;;;;;;;16.17;45.26;102844.09;5000249;28;20132;-58
2021/12/21 06:31:58;;;;;;;18.05;10.20;;;;;;;16.15;45.11;102832.59;4999748;28;20081;-58
2021/12/21 06:34:24;;;;;;;18.33;11.00;;;;;;;16.12;44.96;102835.44;4999972;28;20076;-58
2021/12/21 06:36:51;;;;;;;18.08;10.50;;;;;;;16.10;46.07;102834.69;4998699;28;20046;-58
2021/12/21 06:39:18;;;;;;;21.23;10.60;;;;;;;16.07;44.95;102838.41;5002433;28;20129;-58
2021/12/21 06:41:45;;;;;;;18.67;10.55;;;;;;;16.05;45.09;102837.66;5002878;28;20068;-58
2021/12/21 06:44:14;;;;;;;21.60;10.77;;;;;;;16.02;45.17;102846.72;5002154;28;20100;-58
2021/12/21 06:51:54;;;;;;;20.10;11.93;;;;;;;15.94;45.99;102848.13;5004670;28;20319;-58
2021/12/21 06:54:21;;;;;;;18.33;10.68;;;;;;;15.92;45.42;102845.56;5000878;28;20113;-58
2021/12/21 06:56:48;;;;;;;21.08;11.48;;;;;;;15.90;45.06;102857.28;5002529;28;20112;-58
2021/12/21 06:59:15;;;;;;;21.60;11.63;;;;;;;15.88;44.96;102853.81;5006390;28;20133;-57
2021/12/21 07:01:42;;;;;;;18.30;11.10;;;;;;;15.86;45.43;102845.03;5004608;28;20092;-57
2021/12/21 07:04:11;;;;;;;20.35;11.23;;;;;;;15.84;46.35;102839.81;5006210;28;20123;-58
2021/12/21 07:06:40;;;;;;;19.75;11.63;;;;;;;15.82;46.27;102839.00;5002364;28;20104;-58
2021/12/21 07:09:59;;;;;;;19.73;11.43;;;;;;;15.79;45.07;102836.50;5004609;28;20077;-58
2021/12/21 07:20:01;;;;;;;22.65;12.73;;;;;;;15.71;45.39;102834.28;5006663;28;20429;-57
2021/12/21 07:22:28;;;;;;;23.67;12.65;;;;;;;15.69;46.14;102838.03;5006533;28;20045;-56
2021/12/21 07:24:55;;;;;;;21.88;12.07;;;;;;;15.67;46.29;102838.09;5009058;28;20134;-57
2021/12/21 07:27:21;;;;;;;21.75;12.70;;;;;;;15.66;45.27;102839.03;5000454;28;20129;-57
2021/12/21 07:29:49;;;;;;;23.88;12.93;;;;;;;15.63;45.28;102836.50;5003148;28;20081;-57
2021/12/21 07:32:16;;;;;;;23.50;13.32;;;;;;;15.62;45.84;102834.78;5003447;28;21399;-57
2021/12/21 07:34:43;;;;;;;23.23;12.82;;;;;;;15.60;46.04;102836.72;5002419;28;20057;-56
2021/12/21 07:37:10;;;;;;;26.35;13.75;;;;;;;15.58;45.57;102838.59;5002555;28;20485;-56
2021/12/21 07:39:37;;;;;;;19.95;11.50;;;;;;;15.58;45.38;102846.63;5006318;28;20441;-56
2021/12/21 07:42:16;;;;;;;25.35;13.32;;;;;;;15.57;46.09;102852.06;5004776;28;20057;-56
2021/12/21 07:44:43;;;;;;;22.27;12.52;;;;;;;15.55;46.00;102854.81;5002921;28;20058;-56
2021/12/21 07:47:10;;;;;;;22.98;12.70;;;;;;;15.54;46.55;102853.09;5006040;28;20041;-56
2021/12/21 07:49:37;;;;;;;22.15;12.68;;;;;;;15.51;45.64;102859.47;4999477;28;20057;-57
2021/12/21 07:52:07;;;;;;;21.23;11.93;;;;;;;15.51;46.07;102853.25;5004018;28;20157;-57
2021/12/21 07:54:34;;;;;;;20.30;12.57;;;;;;;15.49;46.65;102858.69;5002678;28;20046;-57
2021/12/21 07:57:01;;;;;;;22.70;13.73;;;;;;;15.48;46.06;102864.16;5002763;28;20058;-56
2021/12/21 07:59:28;;;;;;;21.73;12.65;;;;;;;15.47;45.59;102862.41;5001895;28;20745;-56
2021/12/21 08:01:55;;;;;;;23.65;13.45;;;;;;;15.45;45.67;102862.50;5001193;28;20278;-57
2021/12/21 08:04:26;;;;;;;22.92;12.35;;;;;;;15.44;46.36;102868.81;5005451;28;20054;-56
2021/12/21 08:07:03;;;;;;;22.23;13.02;;;;;;;15.43;46.19;102860.84;5000861;28;20061;-57
2021/12/21 08:09:37;;;;;;;23.42;13.38;;;;;;;15.42;45.91;102870.69;5001727;28;20077;-57
2021/12/21 08:12:15;;;;;;;24.58;13.20;;;;;;;15.42;45.75;102872.50;5000394;28;20537;-57
2021/12/21 08:14:43;;;;;;;23.10;12.32;;;;;;;15.41;46.43;102887.66;5002329;28;20049;-57
2021/12/21 08:17:10;;;;;;;20.73;12.45;;;;;;;15.41;45.70;102878.78;5004453;28;20100;-56
2021/12/21 08:19:41;;;;;;;20.25;12.23;;;;;;;15.40;45.92;102882.44;5001525;28;20350;-56
2021/12/21 08:22:09;;;;;;;23.05;13.60;;;;;;;15.39;45.66;102891.38;4997976;28;20053;-57
2021/12/21 08:24:35;;;;;;;24.05;13.90;;;;;;;15.39;46.45;102891.38;5011842;28;20096;-57
2021/12/21 08:27:05;;;;;;;23.20;12.85;;;;;;;15.38;45.78;102897.66;5006207;28;20049;-57
2021/12/21 08:29:32;;;;;;;25.20;14.40;;;;;;;15.36;46.46;102895.09;5005340;28;20520;-57
2021/12/21 08:31:59;;;;;;;22.02;12.27;;;;;;;15.38;46.36;102905.69;5006874;28;20046;-56
2021/12/21 08:34:26;;;;;;;21.15;12.32;;;;;;;15.38;46.32;102901.19;5004548;28;20117;-57
2021/12/21 08:36:53;;;;;;;21.27;12.27;;;;;;;15.40;46.45;102902.00;4995899;28;20128;-56
2021/12/21 08:39:23;;;;;;;22.52;12.82;;;;;;;15.47;46.48;102902.50;5005609;28;20128;-57
2021/12/21 08:41:56;;;;;;;21.92;12.57;;;;;;;15.55;45.99;102902.91;5001252;28;20138;-57
2021/12/21 08:44:27;;;;;;;23.37;13.17;;;;;;;15.66;45.69;102913.91;5005653;28;20050;-57
2021/12/21 08:46:57;;;;;;;25.40;13.85;;;;;;;15.74;45.53;102903.63;5002399;28;20579;-57
2021/12/21 08:49:26;;;;;;;24.95;14.38;;;;;;;15.85;46.27;102895.00;4997935;28;20065;-57
2021/12/21 08:51:53;;;;;;;25.83;14.38;;;;;;;15.96;46.33;102892.56;5002408;28;20124;-57
2021/12/21 08:54:20;;;;;;;26.52;14.57;;;;;;;16.07;45.03;102889.22;5002251;28;20045;-57
2021/12/21 08:56:48;;;;;;;26.65;15.40;;;;;;;16.17;46.13;102884.22;4997011;28;20101;-57
2021/12/21 08:59:16;;;;;;;32.78;16.67;;;;;;;16.25;45.14;102882.81;5005072;28;20112;-58
2021/12/21 09:01:44;;;;;;;29.10;16.15;;;;;;;16.35;45.27;102882.25;5001663;28;20119;-59
2021/12/21 09:04:11;;;;;;;29.70;16.17;;;;;;;16.42;45.52;102878.25;4999566;28;20153;-57
2021/12/21 09:06:38;;;;;;;30.50;17.15;;;;;;;16.50;45.21;102887.53;5002374;28;20132;-59
2021/12/21 09:09:04;;;;;;;27.52;15.80;;;;;;;16.57;44.98;102887.16;5001096;28;20129;-59
2021/12/21 09:11:31;;;;;;;27.58;15.80;;;;;;;16.61;45.00;102888.69;5000543;28;20442;-59
2021/12/21 09:13:58;;;;;;;30.77;17.15;;;;;;;16.67;45.01;102893.66;4998052;28;20052;-58
2021/12/21 09:16:25;;;;;;;29.40;17.05;;;;;;;16.71;45.30;102890.69;5003446;28;20050;-58
2021/12/21 09:18:52;;;;;;;32.05;17.55;;;;;;;16.75;45.08;102892.25;5001510;28;20065;-57
2021/12/21 09:21:18;;;;;;;32.70;17.60;;;;;;;16.80;45.20;102891.09;5002305;28;20132;-59
2021/12/21 09:23:45;;;;;;;32.55;19.45;;;;;;;16.83;44.83;102890.91;5001372;28;20192;-57
2021/12/21 09:26:13;;;;;;;34.00;18.58;;;;;;;16.85;44.59;102884.53;4999145;28;20077;-57
2021/12/21 09:28:39;;;;;;;33.72;18.52;;;;;;;16.88;44.53;102878.94;5001421;28;20125;-58
2021/12/21 09:31:06;;;;;;;33.03;17.85;;;;;;;16.91;44.60;102880.59;5000769;28;20125;-60
2021/12/21 09:33:32;;;;;;;34.78;18.75;;;;;;;16.94;44.95;102880.41;5001637;28;20100;-57
2021/12/21 09:35:59;;;;;;;41.03;20.30;;;;;;;16.98;45.70;102881.94;5002079;28;20084;-58
2021/12/21 09:38:26;;;;;;;36.13;19.80;;;;;;;17.01;45.07;102879.06;5004784;28;20467;-58
2021/12/21 09:40:54;;;;;;;38.60;20.75;;;;;;;17.07;45.24;102875.13;4996506;28;20052;-58
2021/12/21 09:43:22;;;;;;;38.13;21.35;;;;;;;17.11;45.26;102872.16;5001799;28;20053;-58
2021/12/21 09:45:49;;;;;;;43.83;23.17;;;;;;;17.16;45.03;102870.03;5005437;28;20337;-58
2021/12/21 09:48:16;;;;;;;45.13;23.10;;;;;;;17.22;45.27;102872.31;5002596;28;20120;-62
2021/12/21 09:50:44;;;;;;;43.28;22.33;;;;;;;17.29;44.83;102880.84;5001115;28;20078;-58
2021/12/21 09:53:10;;;;;;;42.25;23.27;;;;;;;17.37;45.14;102872.31;5001510;28;20050;-57
2021/12/21 09:55:42;;;;;;;42.55;22.63;;;;;;;17.44;45.13;102876.28;5006998;28;20046;-58
2021/12/21 09:58:09;;;;;;;44.28;23.77;;;;;;;17.50;44.63;102889.31;5002293;28;20089;-58
2021/12/21 10:00:35;;;;;;;44.40;22.98;;;;;;;17.56;44.86;102893.38;5000923;28;20137;-58
2021/12/21 10:03:09;;;;;;;47.13;23.33;;;;;;;17.61;44.32;102885.91;5004772;28;20078;-59
2021/12/21 10:05:41;;;;;;;45.08;23.17;;;;;;;17.67;44.46;102878.31;5004798;28;20046;-59
2021/12/21 10:08:11;;;;;;;50.25;24.55;;;;;;;17.73;44.18;102879.75;4997404;28;20058;-59
2021/12/21 10:10:49;;;;;;;44.95;24.75;;;;;;;17.78;44.26;102883.00;4998635;28;20125;-58
2021/12/21 10:13:23;;;;;;;48.90;26.88;;;;;;;17.82;44.15;102881.00;5000503;28;20506;-58
2021/12/21 10:15:53;;;;;;;57.53;27.15;;;;;;;17.85;44.12;102884.31;5000915;28;20153;-58
2021/12/21 10:18:29;;;;;;;52.10;26.90;;;;;;;17.89;44.30;102882.28;5000235;28;20050;-59
2021/12/21 10:21:00;;;;;;;47.67;25.83;;;;;;;17.92;44.07;102876.72;5005100;28;20064;-59
2021/12/21 10:23:33;;;;;;;53.22;26.83;;;;;;;17.94;43.94;102874.78;5001318;28;20072;-59
2021/12/21 10:26:05;;;;;;;54.85;28.23;;;;;;;17.96;43.75;102870.16;5003816;28;20328;-59
2021/12/21 10:28:39;;;;;;;55.97;28.27;;;;;;;17.98;44.03;102868.25;5001717;28;20437;-59
2021/12/21 10:31:09;;;;;;;55.20;28.38;;;;;;;18.00;43.88;102860.94;5001734;28;20053;-59
2021/12/21 10:33:36;;;;;;;49.65;26.05;;;;;;;18.02;43.67;102845.63;5006365;28;20129;-59
2021/12/21 10:36:07;;;;;;;52.13;27.25;;;;;;;18.03;44.14;102839.28;5004170;28;20077;-59
2021/12/21 10:38:43;;;;;;;54.47;27.08;;;;;;;18.04;43.59;102835.63;5002460;28;20345;-59
2021/12/21 10:41:13;;;;;;;50.92;27.05;;;;;;;18.06;43.47;102828.34;5002142;28;20046;-59
2021/12/21 10:43:40;;;;;;;49.17;25.13;;;;;;;18.07;43.54;102832.75;5006317;28;20154;-58
2021/12/21 10:46:07;;;;;;;44.30;23.63;;;;;;;18.07;43.37;102826.53;5005185;28;20140;-58
2021/12/21 10:48:36;;;;;;;46.20;25.00;;;;;;;18.08;43.62;102828.22;5002106;28;20450;-58
2021/12/21 10:51:12;;;;;;;47.42;24.50;;;;;;;18.09;43.42;102825.47;5004800;28;20400;-58
2021/12/21 10:53:46;;;;;;;46.35;26.27;;;;;;;18.09;43.72;102819.19;5002866;28;20078;-57
2021/12/21 10:56:16;;;;;;;46.58;25.20;;;;;;;18.09;43.67;102822.78;5006284;28;20057;-58
2021/12/21 10:58:44;;;;;;;42.20;23.00;;;;;;;18.09;43.12;102819.19;5007468;28;20128;-57
2021/12/21 11:01:20;;;;;;;43.25;23.55;;;;;;;18.09;43.38;102820.09;5005678;28;20045;-58
2021/12/21 11:03:53;;;;;;;42.80;22.88;;;;;;;18.09;43.31;102817.41;5005714;28;20133;-59
2021/12/21 11:06:33;;;;;;;40.85;21.95;;;;;;;18.10;43.03;102823.63;5004835;28;20138;-58
2021/12/21 11:09:04;;;;;;;41.75;21.60;;;;;;;18.10;42.88;102820.94;5003340;28;20077;-58
2021/12/21 11:11:35;;;;;;;40.13;21.75;;;;;;;18.12;42.89;102822.53;5004845;28;20417;-59
2021/12/21 11:14:04;;;;;;;40.03;21.27;;;;;;;18.11;43.56;102820.81;5003544;28;20133;-59
2021/12/21 11:16:40;;;;;;;41.00;20.88;;;;;;;18.12;42.97;102816.31;5003758;28;20525;-58
2021/12/21 11:19:07;;;;;;;43.28;21.30;;;;;;;18.12;42.80;102819.00;5003252;28;20296;-58
2021/12/21 11:21:35;;;;;;;42.22;24.17;;;;;;;18.13;42.82;102818.03;5003367;28;20125;-59
2021/12/21 11:24:07;;;;;;;46.22;24.45;;;;;;;18.13;43.06;102821.59;5008841;28;20718;-60
2021/12/21 11:26:35;;;;;;;49.05;24.17;;;;;;;18.14;43.13;102823.31;5004949;28;20042;-59
2021/12/21 11:29:08;;;;;;;46.88;24.40;;;;;;;18.15;42.87;102819.66;5009036;28;20644;-59
2021/12/21 11:31:47;;;;;;;46.85;24.65;;;;;;;18.15;42.94;102816.97;5007052;28;20053;-59
2021/12/21 11:34:19;;;;;;;49.47;23.88;;;;;;;18.16;43.22;102820.50;5006553;28;20129;-59
2021/12/21 11:39:39;;;;;;;51.75;25.35;;;;;;;18.17;42.94;102801.63;5005675;28;20184;-60
2021/12/21 11:42:08;;;;;;;45.80;23.48;;;;;;;18.18;42.88;102808.72;5007925;28;20663;-60
2021/12/21 11:44:47;;;;;;;50.00;24.45;;;;;;;18.18;42.99;102806.03;5004678;28;20154;-57
2021/12/21 11:47:17;;;;;;;42.28;22.30;;;;;;;18.19;43.18;102802.38;5008375;28;20145;-59
2021/12/21 11:49:54;;;;;;;44.35;22.45;;;;;;;18.20;42.95;102797.84;5007286;28;20136;-60
2021/12/21 11:52:25;;;;;;;44.85;23.25;;;;;;;18.21;42.72;102792.41;5007606;28;20128;-59
2021/12/21 11:54:55;;;;;;;40.33;21.90;;;;;;;18.22;42.86;102794.13;5009305;28;20050;-59
2021/12/21 11:57:40;;;;;;;46.38;23.20;;;;;;;18.23;42.55;102784.22;5009447;28;20498;-59
2021/12/21 12:00:17;;;;;;;46.38;23.90;;;;;;;18.24;42.45;102772.53;5009232;28;20125;-59
2021/12/21 12:02:46;;;;;;;44.65;23.00;;;;;;;18.27;42.74;102771.47;5007867;28;20128;-60
2021/12/21 12:05:18;;;;;;;42.65;21.70;;;;;;;18.28;42.69;102770.47;5008103;28;20064;-60
2021/12/21 12:07:45;;;;;;;41.35;22.35;;;;;;;18.30;42.32;102771.25;5006062;28;20066;-59
2021/12/21 12:10:15;;;;;;;40.35;21.83;;;;;;;18.31;42.08;102768.44;5009120;28;20146;-59
2021/12/21 12:12:42;;;;;;;42.35;21.40;;;;;;;18.33;42.07;102757.59;5003253;28;20163;-59
2021/12/21 12:15:09;;;;;;;42.03;21.70;;;;;;;18.35;42.25;102763.72;5004964;28;20056;-59
2021/12/21 12:17:49;;;;;;;41.50;22.48;;;;;;;18.35;42.25;102758.34;5009052;28;20045;-59